createdAt,value
2019-05-09T00:02:33.547Z,98937.93
2019-05-09T00:05:03.620Z,98937.38
2019-05-09T00:07:33.717Z,98937.38
2019-05-09T00:10:04.085Z,98932.02
2019-05-09T00:12:33.509Z,98926.08
2019-05-09T00:15:04.533Z,98920.59
2019-05-09T00:17:33.865Z,98917.91
2019-05-09T00:20:09.639Z,98921.33
2019-05-09T00:22:38.549Z,98920.73
2019-05-09T00:25:07.427Z,98924.97
2019-05-09T00:27:36.268Z,98925.86
2019-05-09T00:30:06.336Z,98917.91
2019-05-09T00:32:39.900Z,98916.36
2019-05-09T00:35:33.990Z,98910.19
2019-05-09T00:38:07.757Z,98909.32
2019-05-09T00:40:36.574Z,98914.80
2019-05-09T00:43:05.436Z,98908.11
2019-05-09T00:45:54.194Z,98907.23
2019-05-09T00:48:27.291Z,98902.77
2019-05-09T00:50:56.288Z,98897.50
2019-05-09T00:53:25.283Z,98897.44
2019-05-09T00:55:54.315Z,98902.22
2019-05-09T00:58:24.137Z,98908.96
2019-05-09T01:00:53.385Z,98897.40
2019-05-09T01:03:23.429Z,98900.72
2019-05-09T01:05:54.254Z,98897.52
2019-05-09T01:08:24.169Z,98902.98
2019-05-09T01:11:08.248Z,98902.98
2019-05-09T01:13:23.964Z,98897.75
2019-05-09T01:15:53.369Z,98901.98
2019-05-09T01:18:23.708Z,98906.03
2019-05-09T01:20:53.182Z,98903.81
2019-05-09T01:23:23.432Z,98890.03
2019-05-09T01:25:53.010Z,98879.63
2019-05-09T01:28:23.231Z,98880.07
2019-05-09T01:30:53.195Z,98884.73
2019-05-09T01:33:50.454Z,98876.22
2019-05-09T01:36:19.448Z,98885.87
2019-05-09T01:38:48.292Z,98885.86
2019-05-09T01:41:29.761Z,98876.88
2019-05-09T01:43:48.587Z,98880.36
2019-05-09T01:46:17.591Z,98874.30
2019-05-09T01:48:46.476Z,98870.72
2019-05-09T01:51:15.411Z,98875.64
2019-05-09T01:53:49.909Z,98874.64
2019-05-09T01:56:18.844Z,98870.27
2019-05-09T01:58:47.872Z,98877.53
2019-05-09T02:01:16.841Z,98877.83
2019-05-09T02:03:45.641Z,98886.72
2019-05-09T02:06:15.140Z,98881.21
2019-05-09T02:08:43.986Z,98879.45
2019-05-09T02:11:13.463Z,98880.05
2019-05-09T02:13:44.209Z,98879.16
2019-05-09T02:16:30.698Z,98877.70
2019-05-09T02:19:09.176Z,98883.47
2019-05-09T02:21:38.102Z,98877.83
2019-05-09T02:24:06.957Z,98875.16
2019-05-09T02:26:35.831Z,98873.02
2019-05-09T02:29:04.844Z,98871.80
2019-05-09T02:31:35.413Z,98868.45
2019-05-09T02:34:05.092Z,98872.28
2019-05-09T02:36:34.158Z,98874.66
2019-05-09T02:39:03.892Z,98871.80
2019-05-09T02:41:32.797Z,98877.95
2019-05-09T02:44:01.704Z,98874.47
2019-05-09T02:46:49.686Z,98880.30
2019-05-09T02:49:19.282Z,98878.24
2019-05-09T02:51:48.891Z,98884.23
2019-05-09T02:54:19.011Z,98880.16
2019-05-09T02:56:49.234Z,98883.70
2019-05-09T02:59:40.157Z,98883.12
2019-05-09T03:02:19.360Z,98879.28
2019-05-09T03:04:48.895Z,98877.95
2019-05-09T03:07:19.777Z,98884.45
2019-05-09T03:09:48.712Z,98879.52
2019-05-09T03:12:30.416Z,98880.32
2019-05-09T03:14:48.814Z,98884.67
2019-05-09T03:17:18.782Z,98887.27
2019-05-09T03:19:48.785Z,98892.00
2019-05-09T03:22:19.992Z,98892.00
2019-05-09T03:24:48.920Z,98892.86
2019-05-09T03:27:25.115Z,98888.64
2019-05-09T03:29:58.956Z,98892.74
2019-05-09T03:32:29.639Z,98885.45
2019-05-09T03:34:58.101Z,98883.82
2019-05-09T03:37:27.852Z,98880.58
2019-05-09T03:39:58.125Z,98880.16
2019-05-09T03:42:38.170Z,98886.67
2019-05-09T03:44:58.191Z,98881.33
2019-05-09T03:47:37.648Z,98874.47
2019-05-09T03:50:17.735Z,98868.16
2019-05-09T03:52:47.775Z,98871.73
2019-05-09T03:55:21.043Z,98870.47
2019-05-09T03:57:58.055Z,98870.34
2019-05-09T04:00:28.313Z,98879.33
2019-05-09T04:02:58.089Z,98871.02
2019-05-09T04:05:27.401Z,98869.39
2019-05-09T04:08:00.064Z,98878.72
2019-05-09T04:10:28.911Z,98874.42
2019-05-09T04:12:59.630Z,98871.47
2019-05-09T04:15:28.248Z,98866.88
2019-05-09T04:17:57.906Z,98872.80
2019-05-09T04:20:27.735Z,98875.40
2019-05-09T04:22:59.305Z,98875.83
2019-05-09T04:25:30.990Z,98876.19
2019-05-09T04:28:00.002Z,98872.09
2019-05-09T04:30:28.960Z,98876.31
2019-05-09T04:32:58.241Z,98871.78
2019-05-09T04:35:27.981Z,98871.78
2019-05-09T04:37:58.414Z,98876.28
2019-05-09T04:40:31.729Z,98877.17
2019-05-09T04:43:10.867Z,98873.59
2019-05-09T04:45:38.796Z,98877.94
2019-05-09T04:48:13.130Z,98876.45
2019-05-09T04:50:40.813Z,98881.94
2019-05-09T04:53:09.598Z,98876.69
2019-05-09T04:55:39.368Z,98876.40
2019-05-09T04:58:09.297Z,98882.94
2019-05-09T05:01:07.291Z,98881.72
2019-05-09T05:03:37.614Z,98873.69
2019-05-09T05:06:07.687Z,98877.28
2019-05-09T05:08:37.544Z,98874.50
2019-05-09T05:11:07.467Z,98885.63
2019-05-09T05:13:38.388Z,98877.77
2019-05-09T05:16:08.364Z,98877.77
2019-05-09T05:18:37.526Z,98880.20
2019-05-09T05:21:07.837Z,98884.12
2019-05-09T05:23:43.070Z,98877.72
2019-05-09T05:26:12.020Z,98873.58
2019-05-09T05:28:40.838Z,98867.66
2019-05-09T05:31:09.757Z,98862.43
2019-05-09T05:33:51.179Z,98881.79
2019-05-09T05:36:18.265Z,98878.28
2019-05-09T05:38:47.943Z,98881.48
2019-05-09T05:41:18.296Z,98878.52
2019-05-09T05:43:47.988Z,98869.66
2019-05-09T05:46:29.942Z,98877.32
2019-05-09T05:48:58.907Z,98872.73
2019-05-09T05:51:27.867Z,98868.95
2019-05-09T05:53:57.484Z,98870.89
2019-05-09T05:56:27.971Z,98870.42
2019-05-09T05:58:58.019Z,98882.80
2019-05-09T06:01:27.832Z,98875.09
2019-05-09T06:03:58.611Z,98866.08
2019-05-09T06:06:28.046Z,98873.06
2019-05-09T06:08:57.888Z,98868.48
2019-05-09T06:11:28.052Z,98873.16
2019-05-09T06:14:04.287Z,98878.20
2019-05-09T06:16:28.217Z,98874.11
2019-05-09T06:18:58.599Z,98878.62
2019-05-09T06:21:28.368Z,98886.61
2019-05-09T06:23:58.437Z,98881.77
2019-05-09T06:26:29.223Z,98884.56
2019-05-09T06:28:58.458Z,98886.42
2019-05-09T06:31:28.452Z,98887.45
2019-05-09T06:33:57.957Z,98887.89
2019-05-09T06:36:28.308Z,98892.70
2019-05-09T06:38:58.801Z,98894.06
2019-05-09T06:41:28.673Z,98893.38
2019-05-09T06:44:16.212Z,98893.17
2019-05-09T06:46:39.584Z,98892.39
2019-05-09T06:49:24.355Z,98890.94
2019-05-09T06:51:43.040Z,98882.81
2019-05-09T06:54:12.256Z,98886.77
2019-05-09T06:56:41.037Z,98883.86
2019-05-09T06:59:10.031Z,98888.02
2019-05-09T07:01:48.043Z,98888.02
2019-05-09T07:04:27.772Z,98880.68
2019-05-09T07:07:03.788Z,98888.48
2019-05-09T07:09:58.564Z,98894.67
2019-05-09T07:12:28.019Z,98896.00
2019-05-09T07:14:58.085Z,98893.37
2019-05-09T07:17:31.768Z,98898.22
2019-05-09T07:19:58.901Z,98894.05
2019-05-09T07:22:35.489Z,98884.89
2019-05-09T07:25:11.045Z,98890.32
2019-05-09T07:27:39.179Z,98888.89
2019-05-09T07:30:40.822Z,98877.25
2019-05-09T07:33:31.747Z,98871.50
2019-05-09T07:36:00.635Z,98866.09
2019-05-09T07:38:30.951Z,98865.44
2019-05-09T07:41:01.023Z,98855.92
2019-05-09T07:43:30.303Z,98850.05
2019-05-09T07:46:11.454Z,98852.08
2019-05-09T07:48:50.092Z,98849.98
2019-05-09T07:51:19.626Z,98849.14
2019-05-09T07:53:59.089Z,98847.52
2019-05-09T07:56:28.702Z,98843.45
2019-05-09T07:59:00.344Z,98844.95
2019-05-09T08:01:29.314Z,98838.19
2019-05-09T08:03:59.148Z,98834.20
2019-05-09T08:06:28.821Z,98831.27
2019-05-09T08:08:58.230Z,98829.70
2019-05-09T08:11:28.743Z,98815.73
2019-05-09T08:13:58.125Z,98815.73
2019-05-09T08:16:27.936Z,98818.59
2019-05-09T08:18:57.744Z,98822.72
2019-05-09T08:21:27.816Z,98824.61
2019-05-09T08:23:57.851Z,98836.39
2019-05-09T08:26:29.797Z,98840.12
2019-05-09T08:28:58.550Z,98839.30
2019-05-09T08:31:28.199Z,98842.50
2019-05-09T08:33:59.307Z,98837.48
2019-05-09T08:36:28.400Z,98837.06
2019-05-09T08:38:58.647Z,98832.12
2019-05-09T08:41:29.031Z,98833.30
2019-05-09T08:43:58.488Z,98834.30
2019-05-09T08:46:28.628Z,98836.16
2019-05-09T08:48:57.903Z,98834.08
2019-05-09T08:52:10.066Z,98832.02
2019-05-09T08:54:42.745Z,98829.47
2019-05-09T08:57:11.778Z,98835.20
2019-05-09T08:59:40.735Z,98830.84
2019-05-09T09:02:15.390Z,98830.17
2019-05-09T09:04:40.392Z,98822.45
2019-05-09T09:07:09.395Z,98826.22
2019-05-09T09:09:40.252Z,98817.16
2019-05-09T09:12:25.797Z,98819.72
2019-05-09T09:14:40.753Z,98821.21
2019-05-09T09:17:09.723Z,98819.20
2019-05-09T09:19:38.830Z,98821.91
2019-05-09T09:22:08.879Z,98812.02
2019-05-09T09:24:37.980Z,98807.51
2019-05-09T09:27:07.686Z,98804.31
2019-05-09T09:29:37.978Z,98786.55
2019-05-09T09:32:08.274Z,98716.34
2019-05-09T09:34:38.109Z,98793.84
2019-05-09T09:37:11.315Z,98798.11
2019-05-09T09:39:44.407Z,98806.27
2019-05-09T09:42:09.283Z,98807.91
2019-05-09T09:44:39.300Z,98803.88
2019-05-09T09:47:08.716Z,98808.12
2019-05-09T09:49:38.349Z,98802.47
2019-05-09T09:52:08.566Z,98796.89
2019-05-09T09:54:38.697Z,98791.36
2019-05-09T09:57:09.702Z,98793.32
2019-05-09T09:59:44.869Z,98796.09
2019-05-09T10:02:14.842Z,98792.68
2019-05-09T10:04:43.954Z,98790.10
2019-05-09T10:07:12.969Z,98793.79
2019-05-09T10:09:41.991Z,98783.98
2019-05-09T10:12:11.230Z,98778.31
2019-05-09T10:14:45.244Z,98769.42
2019-05-09T10:17:32.183Z,98777.17
2019-05-09T10:20:18.628Z,98771.39
2019-05-09T10:22:58.487Z,98769.71
2019-05-09T10:25:18.493Z,98762.25
2019-05-09T10:27:48.076Z,98769.86
2019-05-09T10:30:18.588Z,98765.55
2019-05-09T10:32:47.724Z,98763.66
2019-05-09T10:35:22.988Z,98757.80
2019-05-09T10:37:51.968Z,98757.80
2019-05-09T10:40:24.470Z,98755.12
2019-05-09T10:43:01.309Z,98756.61
2019-05-09T10:45:49.317Z,98753.11
2019-05-09T10:48:23.935Z,98753.57
2019-05-09T10:50:53.760Z,98767.31
2019-05-09T10:53:19.788Z,98767.31
2019-05-09T10:55:48.700Z,98771.33
2019-05-09T10:58:20.212Z,98762.38
2019-05-09T11:00:48.419Z,98760.25
2019-05-09T11:03:18.113Z,98765.43
2019-05-09T11:05:47.239Z,98754.12
2019-05-09T11:08:18.449Z,98749.39
2019-05-09T11:10:47.553Z,98742.34
2019-05-09T11:13:18.175Z,98737.09
2019-05-09T11:15:48.009Z,98735.17
2019-05-09T11:18:18.505Z,98730.31
2019-05-09T11:20:47.801Z,98732.92
2019-05-09T11:23:19.208Z,98729.73
2019-05-09T11:25:47.355Z,98726.55
2019-05-09T11:28:17.984Z,98726.31
2019-05-09T11:30:47.663Z,98725.06
2019-05-09T11:33:18.359Z,98719.16
2019-05-09T11:35:47.968Z,98717.31
2019-05-09T11:38:29.615Z,98717.55
2019-05-09T11:40:48.354Z,98707.73
2019-05-09T11:43:18.143Z,98706.97
2019-05-09T11:45:47.922Z,98707.34
2019-05-09T11:48:18.677Z,98703.27
2019-05-09T11:50:47.838Z,98707.52
2019-05-09T11:53:17.666Z,98708.01
2019-05-09T11:55:48.272Z,98704.95
2019-05-09T11:58:18.095Z,98703.20
2019-05-09T12:00:48.230Z,98707.99
2019-05-09T12:03:18.892Z,98703.92
2019-05-09T12:05:47.924Z,98702.23
2019-05-09T12:08:17.694Z,98697.16
2019-05-09T12:10:46.872Z,98696.02
2019-05-09T12:13:18.467Z,98689.83
2019-05-09T12:15:48.943Z,98690.82
2019-05-09T12:18:17.036Z,98688.86
2019-05-09T12:20:48.280Z,98691.13
2019-05-09T12:23:19.652Z,98690.05
2019-05-09T12:25:47.049Z,98680.30
2019-05-09T12:28:18.769Z,98668.76
2019-05-09T12:30:48.935Z,98674.41
2019-05-09T12:33:18.811Z,98673.96
2019-05-09T12:35:47.936Z,98670.00
2019-05-09T12:38:18.057Z,98670.55
2019-05-09T12:40:48.223Z,98671.30
2019-05-09T12:43:18.560Z,98671.66
2019-05-09T12:45:47.966Z,98662.41
2019-05-09T12:48:19.369Z,98664.94
2019-05-09T12:50:48.875Z,98664.94
2019-05-09T12:53:18.944Z,98665.66
2019-05-09T12:55:49.637Z,98658.33
2019-05-09T12:58:27.869Z,98661.56
2019-05-09T13:00:58.437Z,98656.70
2019-05-09T13:03:28.156Z,98665.23
2019-05-09T13:05:57.676Z,98666.85
2019-05-09T13:08:27.793Z,98657.53
2019-05-09T13:10:58.364Z,98656.55
2019-05-09T13:13:30.228Z,98656.77
2019-05-09T13:16:11.953Z,98658.25
2019-05-09T13:19:00.295Z,98654.92
2019-05-09T13:21:29.663Z,98645.45
2019-05-09T13:23:58.837Z,98650.73
2019-05-09T13:26:28.789Z,98647.22
2019-05-09T13:28:59.142Z,98648.48
2019-05-09T13:31:29.501Z,98644.74
2019-05-09T13:33:58.766Z,98661.80
2019-05-09T13:36:28.629Z,98665.05
2019-05-09T13:39:04.355Z,98671.48
2019-05-09T13:41:28.353Z,98661.01
2019-05-09T13:44:03.825Z,98668.70
2019-05-09T13:46:28.410Z,98670.68
2019-05-09T13:49:11.100Z,98670.42
2019-05-09T13:51:28.277Z,98663.41
2019-05-09T13:53:59.346Z,98668.42
2019-05-09T13:56:28.125Z,98673.92
2019-05-09T13:58:58.157Z,98676.68
2019-05-09T14:01:27.400Z,98677.31
2019-05-09T14:03:57.699Z,98687.97
2019-05-09T14:06:27.741Z,98691.02
2019-05-09T14:08:59.419Z,98690.89
2019-05-09T14:11:29.077Z,98691.88
2019-05-09T14:13:58.251Z,98702.66
2019-05-09T14:16:28.764Z,98703.16
2019-05-09T14:19:00.597Z,98700.82
2019-05-09T14:21:29.793Z,98712.73
2019-05-09T14:24:10.779Z,98715.33
2019-05-09T14:26:29.639Z,98723.38
2019-05-09T14:28:58.623Z,98722.82
2019-05-09T14:31:32.124Z,98726.80
2019-05-09T14:33:58.237Z,98731.52
2019-05-09T14:36:27.790Z,98736.83
2019-05-09T14:38:57.977Z,98741.06
2019-05-09T14:41:27.820Z,98744.48
2019-05-09T14:43:59.638Z,98747.38
2019-05-09T14:46:28.482Z,98745.48
2019-05-09T14:48:58.447Z,98752.80
2019-05-09T14:51:28.407Z,98757.66
2019-05-09T14:53:59.398Z,98761.42
2019-05-09T14:56:28.475Z,98765.76
2019-05-09T14:58:58.138Z,98772.91
2019-05-09T15:01:28.819Z,98776.69
2019-05-09T15:03:58.774Z,98790.32
2019-05-09T15:06:28.376Z,98790.32
2019-05-09T15:08:58.203Z,98799.77
2019-05-09T15:11:28.261Z,98810.33
2019-05-09T15:13:58.520Z,98801.69
2019-05-09T15:16:28.391Z,98813.03
2019-05-09T15:18:58.555Z,98811.13
2019-05-09T15:21:27.645Z,98778.44
2019-05-09T15:23:58.964Z,98820.53
2019-05-09T15:26:27.698Z,98824.08
2019-05-09T15:28:57.751Z,98835.04
2019-05-09T15:31:28.640Z,98825.01
2019-05-09T15:33:57.897Z,98831.70
2019-05-09T15:36:26.729Z,98826.70
2019-05-09T15:38:55.609Z,98840.13
2019-05-09T15:41:24.469Z,98850.69
2019-05-09T15:43:53.267Z,98843.12
2019-05-09T15:46:27.866Z,98857.67
2019-05-09T15:48:58.250Z,98859.78
2019-05-09T15:51:27.981Z,98861.64
2019-05-09T15:53:57.807Z,98861.08
2019-05-09T15:56:28.828Z,98858.71
2019-05-09T15:58:58.104Z,98861.08
2019-05-09T16:01:27.890Z,98874.84
2019-05-09T16:03:57.152Z,98865.94
2019-05-09T16:06:32.622Z,98871.09
2019-05-09T16:08:58.563Z,98885.98
2019-05-09T16:11:28.577Z,98895.70
2019-05-09T16:13:57.795Z,98895.16
2019-05-09T16:16:28.648Z,98900.03
2019-05-09T16:18:58.263Z,98908.97
2019-05-09T16:21:27.908Z,98904.63
2019-05-09T16:23:59.252Z,98913.53
2019-05-09T16:26:29.091Z,98919.44
2019-05-09T16:28:58.366Z,98922.31
2019-05-09T16:31:27.914Z,98921.19
2019-05-09T16:33:58.156Z,98930.72
2019-05-09T16:36:28.166Z,98931.23
2019-05-09T16:38:58.405Z,98931.15
2019-05-09T16:41:28.084Z,98934.60
2019-05-09T16:43:58.378Z,98949.37
2019-05-09T16:46:28.640Z,98941.55
2019-05-09T16:48:58.232Z,98950.10
2019-05-09T16:51:28.626Z,98954.88
2019-05-09T16:53:58.501Z,98953.52
2019-05-09T16:56:28.695Z,98949.94
2019-05-09T16:58:58.022Z,98952.61
2019-05-09T17:01:28.367Z,98960.92
2019-05-09T17:03:57.694Z,98960.23
2019-05-09T17:06:27.497Z,98963.23
2019-05-09T17:08:58.410Z,98958.33
2019-05-09T17:11:27.884Z,98933.14
2019-05-09T17:13:58.332Z,98966.28
2019-05-09T17:16:28.507Z,98971.56
2019-05-09T17:18:58.298Z,98970.69
2019-05-09T17:21:42.928Z,98973.20
2019-05-09T17:24:14.788Z,98976.89
2019-05-09T17:26:43.796Z,98980.56
2019-05-09T17:29:12.846Z,98993.02
2019-05-09T17:31:41.814Z,98991.40
2019-05-09T17:34:10.895Z,98993.79
2019-05-09T17:36:39.790Z,99004.52
2019-05-09T17:39:09.348Z,99005.31
2019-05-09T17:41:38.391Z,99013.33
2019-05-09T17:44:07.743Z,99021.34
2019-05-09T17:46:38.595Z,99019.61
2019-05-09T17:49:08.424Z,99025.81
2019-05-09T17:51:37.421Z,99027.30
2019-05-09T17:54:08.118Z,99042.47
2019-05-09T17:56:37.928Z,99042.02
2019-05-09T17:59:08.523Z,99042.75
2019-05-09T18:01:37.842Z,99050.70
2019-05-09T18:04:09.153Z,99056.22
2019-05-09T18:06:38.087Z,99055.59
2019-05-09T18:09:08.405Z,99050.95
2019-05-09T18:11:37.916Z,99060.83
2019-05-09T18:14:08.065Z,99061.54
2019-05-09T18:16:38.967Z,99069.56
2019-05-09T18:19:09.170Z,99074.88
2019-05-09T18:21:49.962Z,99078.87
2019-05-09T18:24:09.036Z,99078.80
2019-05-09T18:26:38.356Z,99079.29
2019-05-09T18:29:07.428Z,99083.28
2019-05-09T18:32:07.848Z,99090.39
2019-05-09T18:34:38.022Z,99089.48
2019-05-09T18:37:08.032Z,99089.03
2019-05-09T18:39:37.506Z,99099.49
2019-05-09T18:42:08.732Z,99104.70
2019-05-09T18:44:38.000Z,99110.53
2019-05-09T18:47:07.848Z,99116.16
2019-05-09T18:49:36.928Z,99120.89
2019-05-09T18:52:05.938Z,99127.15
2019-05-09T18:54:35.550Z,99138.50
2019-05-09T18:57:04.549Z,99140.98
2019-05-09T18:59:33.489Z,99146.23
2019-05-09T19:02:02.365Z,99154.83
2019-05-09T19:04:31.504Z,99148.64
2019-05-09T19:07:00.496Z,99154.83
2019-05-09T19:09:29.484Z,99155.22
2019-05-09T19:11:58.532Z,99163.98
2019-05-09T19:14:27.444Z,99164.76
2019-05-09T19:17:15.203Z,99160.23
2019-05-09T19:19:50.161Z,99160.64
2019-05-09T19:22:22.424Z,99160.64
2019-05-09T19:24:49.784Z,99164.22
2019-05-09T19:27:18.778Z,99166.80
2019-05-09T19:29:47.680Z,99170.44
2019-05-09T19:32:16.601Z,99172.56
2019-05-09T19:34:45.515Z,99174.47
2019-05-09T19:37:14.531Z,99185.50
2019-05-09T19:39:43.514Z,99190.02
2019-05-09T19:42:12.401Z,99194.05
2019-05-09T19:44:41.209Z,99194.03
2019-05-09T19:47:10.143Z,99201.07
2019-05-09T19:49:39.001Z,99207.63
2019-05-09T19:52:08.024Z,99215.82
2019-05-09T19:54:37.039Z,99185.56
2019-05-09T19:57:06.143Z,99208.95
2019-05-09T19:59:35.092Z,99217.33
2019-05-09T20:02:04.106Z,99221.20
2019-05-09T20:04:32.960Z,99232.47
2019-05-09T20:07:01.926Z,99233.00
2019-05-09T20:09:37.460Z,99233.61
2019-05-09T20:12:28.280Z,99237.75
2019-05-09T20:14:57.057Z,99246.17
2019-05-09T20:17:26.053Z,99242.88
2019-05-09T20:19:54.828Z,99247.18
2019-05-09T20:22:23.824Z,99256.17
2019-05-09T20:24:52.802Z,99258.74
2019-05-09T20:27:21.725Z,99264.89
2019-05-09T20:29:50.602Z,99267.06
2019-05-09T20:32:19.648Z,99273.98
2019-05-09T20:34:48.707Z,99271.58
2019-05-09T20:37:17.556Z,99283.67
2019-05-09T20:39:46.667Z,99292.42
2019-05-09T20:42:15.736Z,99293.43
2019-05-09T20:44:44.812Z,99296.69
2019-05-09T20:47:14.060Z,99301.20
2019-05-09T20:49:43.129Z,99304.18
2019-05-09T20:52:12.262Z,99310.77
2019-05-09T20:54:41.459Z,99314.11
2019-05-09T20:57:10.547Z,99315.37
2019-05-09T20:59:39.828Z,99319.41
2019-05-09T21:02:09.045Z,99320.33
2019-05-09T21:04:38.053Z,99328.05
2019-05-09T21:07:07.312Z,99338.43
2019-05-09T21:09:36.428Z,99339.96
2019-05-09T21:12:05.704Z,99346.60
2019-05-09T21:14:34.696Z,99347.68
2019-05-09T21:17:03.827Z,99351.57
2019-05-09T21:19:32.951Z,99354.02
2019-05-09T21:22:01.919Z,99360.53
2019-05-09T21:24:31.015Z,99360.15
2019-05-09T21:27:00.009Z,99361.20
2019-05-09T21:29:30.851Z,99365.17
2019-05-09T21:32:00.029Z,99368.67
2019-05-09T21:34:29.166Z,99369.95
2019-05-09T21:36:58.240Z,99378.38
2019-05-09T21:39:27.197Z,99381.23
2019-05-09T21:41:56.071Z,99387.80
2019-05-09T21:44:24.927Z,99387.64
2019-05-09T21:46:53.765Z,99391.06
2019-05-09T21:49:22.689Z,99396.33
2019-05-09T21:51:51.707Z,99398.03
2019-05-09T21:54:20.597Z,99394.91
2019-05-09T21:56:49.623Z,99401.77
2019-05-09T21:59:18.556Z,99406.69
2019-05-09T22:01:47.533Z,99406.04
2019-05-09T22:04:17.825Z,99406.83
2019-05-09T22:06:47.136Z,99402.49
2019-05-09T22:09:16.037Z,99404.89
2019-05-09T22:11:45.038Z,99401.92
2019-05-09T22:14:13.970Z,99405.18
2019-05-09T22:16:43.617Z,99405.58
2019-05-09T22:19:12.612Z,99419.33
2019-05-09T22:21:41.615Z,99418.66
2019-05-09T22:24:10.628Z,99426.18
2019-05-09T22:26:39.590Z,99429.06
2019-05-09T22:29:08.491Z,99437.34
2019-05-09T22:31:37.473Z,99429.45
2019-05-09T22:34:06.503Z,99434.02
2019-05-09T22:36:35.508Z,99432.70
2019-05-09T22:39:05.821Z,99433.67
2019-05-09T22:41:34.823Z,99437.23
2019-05-09T22:44:04.041Z,99436.64
2019-05-09T22:46:32.924Z,99442.75
2019-05-09T22:49:01.971Z,99440.23
2019-05-09T22:51:30.992Z,99439.17
2019-05-09T22:54:12.217Z,99433.79
2019-05-09T22:56:30.703Z,99439.02
2019-05-09T22:58:59.595Z,99447.20
2019-05-09T23:01:28.403Z,99437.70
2019-05-09T23:03:57.197Z,99443.96
2019-05-09T23:06:26.099Z,99443.96
2019-05-09T23:09:06.543Z,99439.46
2019-05-09T23:11:35.550Z,99444.11
2019-05-09T23:14:04.949Z,99442.45
2019-05-09T23:16:36.473Z,99441.86
2019-05-09T23:19:06.264Z,99449.08
2019-05-09T23:21:35.249Z,99455.86
2019-05-09T23:24:27.567Z,99454.15
2019-05-09T23:26:43.398Z,99459.19
2019-05-09T23:29:12.394Z,99470.54
2019-05-09T23:31:56.643Z,99471.78
2019-05-09T23:34:25.623Z,99471.48
2019-05-09T23:36:54.485Z,99472.66
2019-05-09T23:39:25.429Z,99468.28
2019-05-09T23:41:54.490Z,99459.72
2019-05-09T23:44:23.541Z,99466.72
2019-05-09T23:46:52.497Z,99463.28
2019-05-09T23:49:21.478Z,99469.98
2019-05-09T23:51:50.786Z,99470.58
2019-05-09T23:54:47.382Z,99474.06
2019-05-09T23:57:28.154Z,99474.55
